createdAt,value
2023-02-27T00:01:18.291Z,8.20
2023-02-27T00:03:48.500Z,8.90
2023-02-27T00:06:17.393Z,8.20
2023-02-27T00:08:46.266Z,12.20
2023-02-27T00:11:14.765Z,9.90
2023-02-27T00:13:44.080Z,10.20
2023-02-27T00:16:12.961Z,7.10
2023-02-27T00:18:46.897Z,8.80
2023-02-27T00:21:15.444Z,7.00
2023-02-27T00:23:42.805Z,8.40
2023-02-27T00:26:10.815Z,9.10
2023-02-27T00:28:38.635Z,8.20
2023-02-27T00:31:08.219Z,8.40
2023-02-27T00:33:37.732Z,7.60
2023-02-27T00:36:06.328Z,7.20
2023-02-27T00:38:36.046Z,9.20
2023-02-27T00:41:03.495Z,7.40
2023-02-27T00:43:32.384Z,6.50
2023-02-27T00:46:03.381Z,6.50
2023-02-27T00:48:30.677Z,9.80
2023-02-27T00:50:58.377Z,8.00
2023-02-27T00:53:25.803Z,8.20
2023-02-27T00:55:54.277Z,6.40
2023-02-27T00:58:22.702Z,7.80
2023-02-27T01:00:50.347Z,6.70
2023-02-27T01:05:49.123Z,6.60
2023-02-27T01:08:17.839Z,9.10
2023-02-27T01:10:45.981Z,6.40
2023-02-27T01:13:13.956Z,7.80
2023-02-27T01:15:41.726Z,8.10
2023-02-27T01:18:10.303Z,8.30
2023-02-27T01:20:40.989Z,7.60
2023-02-27T01:23:08.334Z,9.10
2023-02-27T01:25:39.921Z,7.30
2023-02-27T01:28:07.194Z,6.80
2023-02-27T01:30:35.021Z,7.20
2023-02-27T01:33:03.137Z,6.40
2023-02-27T01:35:31.418Z,6.60
2023-02-27T01:37:59.072Z,5.80
2023-02-27T01:40:26.731Z,6.70
2023-02-27T01:42:53.987Z,6.50
2023-02-27T01:45:35.996Z,7.60
2023-02-27T01:48:07.226Z,6.00
2023-02-27T01:50:35.967Z,6.90
2023-02-27T01:53:05.931Z,5.50
2023-02-27T01:55:37.443Z,6.60
2023-02-27T01:58:06.480Z,4.90
2023-02-27T02:00:34.256Z,6.30
2023-02-27T02:03:39.996Z,5.90
2023-02-27T02:06:07.450Z,5.40
2023-02-27T02:08:45.675Z,5.10
2023-02-27T02:11:13.634Z,4.50
2023-02-27T02:13:40.886Z,6.20
2023-02-27T02:16:21.401Z,6.40
2023-02-27T02:19:22.285Z,6.40
2023-02-27T02:21:51.074Z,6.10
2023-02-27T02:24:46.588Z,4.30
2023-02-27T02:27:49.383Z,5.60
2023-02-27T02:33:22.997Z,5.40
2023-02-27T02:35:57.326Z,4.30
2023-02-27T02:38:33.829Z,4.80
2023-02-27T02:41:14.551Z,7.10
2023-02-27T02:46:29.847Z,4.00
2023-02-27T02:49:05.625Z,3.80
2023-02-27T02:51:48.103Z,5.60
2023-02-27T02:55:05.034Z,5.70
2023-02-27T02:57:38.827Z,5.60
2023-02-27T03:00:25.129Z,4.70
2023-02-27T03:03:20.940Z,5.80
2023-02-27T03:05:58.262Z,4.80
2023-02-27T03:08:31.012Z,5.10
2023-02-27T03:11:05.250Z,5.00
2023-02-27T03:13:36.784Z,4.20
2023-02-27T03:16:28.157Z,4.40
2023-02-27T03:19:05.274Z,5.30
2023-02-27T03:21:39.189Z,4.40
2023-02-27T03:24:07.900Z,3.80
2023-02-27T03:26:40.657Z,4.10
2023-02-27T03:29:10.547Z,3.00
2023-02-27T03:31:46.475Z,3.70
2023-02-27T03:34:19.316Z,5.00
2023-02-27T03:36:59.049Z,4.90
2023-02-27T03:39:41.863Z,6.10
2023-02-27T03:42:46.980Z,3.90
2023-02-27T03:45:54.188Z,4.00
2023-02-27T03:48:28.359Z,4.30
2023-02-27T03:50:55.758Z,5.30
2023-02-27T03:53:33.278Z,4.60
2023-02-27T03:56:05.434Z,12.20
2023-02-27T03:58:33.201Z,6.70
2023-02-27T04:01:21.562Z,5.70
2023-02-27T04:03:54.412Z,6.60
2023-02-27T04:06:54.849Z,5.50
2023-02-27T04:09:40.124Z,6.50
2023-02-27T04:12:25.900Z,4.20
2023-02-27T04:15:27.721Z,5.80
2023-02-27T04:18:21.845Z,5.50
2023-02-27T04:20:59.801Z,6.10
2023-02-27T04:23:40.943Z,5.70
2023-02-27T04:26:31.840Z,5.90
2023-02-27T04:29:07.829Z,6.20
2023-02-27T04:31:46.158Z,5.60
2023-02-27T04:34:30.969Z,5.90
2023-02-27T04:37:06.852Z,8.50
2023-02-27T04:39:51.608Z,10.10
2023-02-27T04:42:21.409Z,7.60
2023-02-27T04:44:50.709Z,5.90
2023-02-27T04:47:18.002Z,7.30
2023-02-27T04:49:55.042Z,6.00
2023-02-27T04:52:24.991Z,7.10
2023-02-27T04:55:14.841Z,9.60
2023-02-27T04:58:07.586Z,8.90
2023-02-27T05:00:35.145Z,7.70
2023-02-27T05:03:17.651Z,38.70
2023-02-27T05:05:45.827Z,10.30
2023-02-27T05:08:43.391Z,8.40
2023-02-27T05:11:32.040Z,10.10
2023-02-27T05:14:04.117Z,7.70
2023-02-27T05:16:50.091Z,9.00
2023-02-27T05:19:47.171Z,16.60
2023-02-27T05:22:48.503Z,19.80
2023-02-27T05:25:31.657Z,10.00
2023-02-27T05:28:11.574Z,10.80
2023-02-27T05:30:59.104Z,8.30
2023-02-27T05:33:41.588Z,8.70
2023-02-27T05:36:45.938Z,11.30
2023-02-27T05:39:13.894Z,9.10
2023-02-27T05:41:47.133Z,9.00
2023-02-27T05:44:20.020Z,8.70
2023-02-27T05:47:02.065Z,10.30
2023-02-27T05:49:36.529Z,11.70
2023-02-27T05:52:04.867Z,10.30
2023-02-27T05:54:42.564Z,10.20
2023-02-27T05:57:12.930Z,10.50
2023-02-27T06:00:07.793Z,9.50
2023-02-27T06:02:41.087Z,11.00
2023-02-27T06:05:09.009Z,12.20
2023-02-27T06:07:38.682Z,10.80
2023-02-27T06:10:08.685Z,12.70
2023-02-27T06:12:37.362Z,10.90
2023-02-27T06:15:07.950Z,11.20
2023-02-27T06:17:38.744Z,12.60
2023-02-27T06:20:07.813Z,12.10
2023-02-27T06:22:35.735Z,10.70
2023-02-27T06:25:03.266Z,10.70
2023-02-27T06:27:32.036Z,10.30
2023-02-27T06:30:04.411Z,13.30
2023-02-27T06:32:33.436Z,10.00
2023-02-27T06:35:09.403Z,11.20
2023-02-27T06:37:38.630Z,12.50
2023-02-27T06:40:11.203Z,12.40
2023-02-27T06:42:41.756Z,9.40
2023-02-27T06:45:10.900Z,12.70
2023-02-27T06:47:40.378Z,15.60
2023-02-27T06:50:10.689Z,13.40
2023-02-27T06:52:39.779Z,14.10
2023-02-27T06:55:09.410Z,13.20
2023-02-27T06:57:38.482Z,14.00
2023-02-27T07:00:12.168Z,14.20
2023-02-27T07:02:40.568Z,12.10
2023-02-27T07:05:08.884Z,13.30
2023-02-27T07:07:37.995Z,13.60
2023-02-27T07:10:10.802Z,10.40
2023-02-27T07:12:40.064Z,13.30
2023-02-27T07:15:09.601Z,18.00
2023-02-27T07:17:38.218Z,15.10
2023-02-27T07:20:10.065Z,12.60
2023-02-27T07:22:39.266Z,12.10
2023-02-27T07:25:09.644Z,14.30
2023-02-27T07:27:38.407Z,12.20
2023-02-27T07:30:10.595Z,9.90
2023-02-27T07:32:38.987Z,10.90
2023-02-27T07:35:08.086Z,13.50
2023-02-27T07:37:35.736Z,14.60
2023-02-27T07:40:05.075Z,12.20
2023-02-27T07:42:34.086Z,12.30
2023-02-27T07:45:02.151Z,13.30
2023-02-27T07:47:30.054Z,11.80
2023-02-27T07:49:57.684Z,14.20
2023-02-27T07:52:25.853Z,11.10
2023-02-27T07:54:53.725Z,14.40
2023-02-27T07:57:21.293Z,17.00
2023-02-27T07:59:49.050Z,13.80
2023-02-27T08:02:16.813Z,13.90
2023-02-27T08:04:44.302Z,14.60
2023-02-27T08:07:13.008Z,14.80
2023-02-27T08:09:44.504Z,15.30
2023-02-27T08:12:12.279Z,16.70
2023-02-27T08:14:39.925Z,20.80
2023-02-27T08:17:08.532Z,18.70
2023-02-27T08:19:36.823Z,12.90
2023-02-27T08:22:04.604Z,19.10
2023-02-27T08:24:34.265Z,16.80
2023-02-27T08:27:02.461Z,16.60
2023-02-27T08:29:32.652Z,18.60
2023-02-27T08:32:01.966Z,16.60
2023-02-27T08:34:30.047Z,16.30
2023-02-27T08:36:59.544Z,17.30
2023-02-27T08:39:34.262Z,32.80
2023-02-27T08:42:02.236Z,33.70
2023-02-27T08:44:29.987Z,29.30
2023-02-27T08:46:58.043Z,16.80
2023-02-27T08:49:26.038Z,20.10
2023-02-27T08:51:54.000Z,16.90
2023-02-27T08:54:22.472Z,16.00
2023-02-27T08:56:50.018Z,19.30
2023-02-27T08:59:17.508Z,19.80
2023-02-27T09:01:45.364Z,21.70
2023-02-27T09:04:12.719Z,16.90
2023-02-27T09:06:40.789Z,18.00
2023-02-27T09:09:09.373Z,21.60
2023-02-27T09:11:38.667Z,21.90
2023-02-27T09:14:06.650Z,23.40
2023-02-27T09:16:39.155Z,18.20
2023-02-27T09:19:07.598Z,20.50
2023-02-27T09:21:37.020Z,19.70
2023-02-27T09:24:18.606Z,19.30
2023-02-27T09:26:48.301Z,24.10
2023-02-27T09:29:17.501Z,27.20
2023-02-27T09:31:44.752Z,18.90
2023-02-27T09:34:12.915Z,16.20
2023-02-27T09:36:41.401Z,16.10
2023-02-27T09:39:09.827Z,19.40
2023-02-27T09:41:57.832Z,22.80
2023-02-27T09:44:45.190Z,19.80
2023-02-27T09:47:37.898Z,18.10
2023-02-27T09:50:21.695Z,19.60
2023-02-27T09:52:49.287Z,18.00
2023-02-27T09:55:21.578Z,21.10
2023-02-27T10:04:45.597Z,21.80
2023-02-27T10:07:28.189Z,23.10
2023-02-27T10:10:21.295Z,18.20
2023-02-27T10:13:07.824Z,21.70
2023-02-27T10:15:41.264Z,21.50
2023-02-27T10:18:27.635Z,20.60
2023-02-27T10:21:11.430Z,27.40
2023-02-27T10:23:53.514Z,21.00
2023-02-27T10:26:27.639Z,35.00
2023-02-27T10:28:58.344Z,28.60
2023-02-27T10:31:30.699Z,19.70
2023-02-27T10:34:00.543Z,19.60
2023-02-27T10:36:34.888Z,30.50
2023-02-27T10:39:08.321Z,31.40
2023-02-27T10:41:37.160Z,29.10
2023-02-27T10:44:08.577Z,29.20
2023-02-27T10:46:39.758Z,30.70
2023-02-27T10:49:17.564Z,24.40
2023-02-27T10:52:03.917Z,25.70
2023-02-27T10:54:33.444Z,32.70
2023-02-27T10:57:05.591Z,30.70
2023-02-27T10:59:40.601Z,32.90
2023-02-27T11:02:21.122Z,23.30
2023-02-27T11:04:54.734Z,22.90
2023-02-27T11:07:34.694Z,21.80
2023-02-27T11:10:23.655Z,26.20
2023-02-27T11:13:03.303Z,32.80
2023-02-27T11:15:36.239Z,30.30
2023-02-27T11:18:24.781Z,28.70
2023-02-27T11:20:53.707Z,24.70
2023-02-27T11:23:26.697Z,28.70
2023-02-27T11:26:16.653Z,25.80
2023-02-27T11:28:46.026Z,27.40
2023-02-27T11:31:20.024Z,27.70
2023-02-27T11:33:54.589Z,25.90
2023-02-27T11:36:24.352Z,24.90
2023-02-27T11:41:30.666Z,26.70
2023-02-27T11:43:59.370Z,24.10
2023-02-27T11:46:46.804Z,33.20
2023-02-27T11:49:32.965Z,25.40
2023-02-27T11:52:19.079Z,31.10
2023-02-27T11:54:51.148Z,37.00
2023-02-27T11:57:19.725Z,33.50
2023-02-27T12:00:07.309Z,26.50
2023-02-27T12:03:00.966Z,44.50
2023-02-27T12:05:33.816Z,35.70
2023-02-27T12:08:43.148Z,31.80
2023-02-27T12:11:42.035Z,30.50
2023-02-27T12:14:28.900Z,27.90
2023-02-27T12:17:03.251Z,34.20
2023-02-27T12:19:39.017Z,29.60
2023-02-27T12:22:26.239Z,30.80
2023-02-27T12:24:59.535Z,29.50
2023-02-27T12:27:49.286Z,26.80
2023-02-27T12:30:29.309Z,27.30
2023-02-27T12:33:21.095Z,25.40
2023-02-27T12:35:56.328Z,33.00
2023-02-27T12:38:24.914Z,31.50
2023-02-27T12:41:18.902Z,26.80
2023-02-27T12:43:53.620Z,32.90
2023-02-27T12:46:28.442Z,29.70
2023-02-27T12:49:34.388Z,31.50
2023-02-27T12:52:32.376Z,26.00
2023-02-27T12:55:08.202Z,27.60
2023-02-27T12:58:05.802Z,24.70
2023-02-27T13:01:01.342Z,31.00
2023-02-27T13:03:59.985Z,34.80
2023-02-27T13:06:54.197Z,29.00
2023-02-27T13:09:33.063Z,25.30
2023-02-27T13:12:39.890Z,27.00
2023-02-27T13:15:22.502Z,27.90
2023-02-27T13:18:04.908Z,29.40
2023-02-27T13:20:39.663Z,31.70
2023-02-27T13:23:08.751Z,26.70
2023-02-27T13:25:37.628Z,32.20
2023-02-27T13:28:11.702Z,28.60
2023-02-27T13:30:44.663Z,26.50
2023-02-27T13:33:30.747Z,27.00
2023-02-27T13:36:05.833Z,25.30
2023-02-27T13:38:49.317Z,32.40
2023-02-27T13:41:24.587Z,28.20
2023-02-27T13:43:58.641Z,29.40
2023-02-27T13:46:27.520Z,27.90
2023-02-27T13:49:26.997Z,27.00
2023-02-27T13:51:59.929Z,29.60
2023-02-27T13:54:36.663Z,27.90
2023-02-27T13:57:07.320Z,24.70
2023-02-27T13:59:37.607Z,23.90
2023-02-27T14:04:49.769Z,24.20
2023-02-27T14:07:24.712Z,21.90
2023-02-27T14:10:00.647Z,21.10
2023-02-27T14:12:42.587Z,21.40
2023-02-27T14:15:18.321Z,20.90
2023-02-27T14:17:59.602Z,23.60
2023-02-27T14:20:41.173Z,21.30
2023-02-27T14:23:17.638Z,18.30
2023-02-27T14:25:54.515Z,19.00
2023-02-27T14:28:32.465Z,18.40
2023-02-27T14:31:42.809Z,20.30
2023-02-27T14:34:14.958Z,22.90
2023-02-27T14:36:50.526Z,28.30
2023-02-27T14:39:33.969Z,22.60
2023-02-27T14:42:10.307Z,24.80
2023-02-27T14:44:41.975Z,22.10
2023-02-27T14:47:38.006Z,21.30
2023-02-27T14:50:29.022Z,21.70
2023-02-27T14:52:59.403Z,24.90
2023-02-27T14:55:30.289Z,22.30
2023-02-27T14:58:02.412Z,21.90
2023-02-27T15:00:42.691Z,19.80
2023-02-27T15:03:23.133Z,16.90
2023-02-27T15:05:53.698Z,16.60
2023-02-27T15:08:24.799Z,17.70
2023-02-27T15:10:56.396Z,19.40
2023-02-27T15:13:29.108Z,19.20
2023-02-27T15:16:26.244Z,21.60
2023-02-27T15:19:21.738Z,24.30
2023-02-27T15:21:56.413Z,19.10
2023-02-27T15:24:35.292Z,16.60
2023-02-27T15:27:23.334Z,21.50
2023-02-27T15:29:56.754Z,20.00
2023-02-27T15:32:30.816Z,18.70
2023-02-27T15:35:12.697Z,17.50
2023-02-27T15:37:41.790Z,17.80
2023-02-27T15:40:13.496Z,16.90
2023-02-27T15:42:45.009Z,17.70
2023-02-27T15:45:22.000Z,15.60
2023-02-27T15:47:53.529Z,17.80
2023-02-27T15:50:48.642Z,15.90
2023-02-27T15:53:28.787Z,15.40
2023-02-27T15:56:06.382Z,13.10
2023-02-27T15:58:49.088Z,13.50
2023-02-27T16:01:20.798Z,16.30
2023-02-27T16:03:51.968Z,11.30
2023-02-27T16:06:41.909Z,11.10
2023-02-27T16:09:22.486Z,12.00
2023-02-27T16:12:11.366Z,12.80
2023-02-27T16:14:44.486Z,12.20
2023-02-27T16:17:31.034Z,11.10
2023-02-27T16:20:02.423Z,10.50
2023-02-27T16:22:31.749Z,11.20
2023-02-27T16:25:10.995Z,10.20
2023-02-27T16:27:41.355Z,9.40
2023-02-27T16:30:11.837Z,8.50
2023-02-27T16:32:44.356Z,10.60
2023-02-27T16:35:21.399Z,7.00
2023-02-27T16:37:50.689Z,9.30
2023-02-27T16:40:25.524Z,6.10
2023-02-27T16:42:54.208Z,7.90
2023-02-27T16:45:45.459Z,7.80
2023-02-27T16:48:14.939Z,9.10
2023-02-27T16:51:12.894Z,7.30
2023-02-27T16:54:02.166Z,9.40
2023-02-27T16:56:38.246Z,9.90
2023-02-27T16:59:29.925Z,10.40
2023-02-27T17:04:28.294Z,8.40
2023-02-27T17:06:59.753Z,13.00
2023-02-27T17:09:29.542Z,10.90
2023-02-27T17:14:30.567Z,11.30
2023-02-27T17:17:19.162Z,8.50
2023-02-27T17:19:48.415Z,5.60
2023-02-27T17:22:19.524Z,4.80
2023-02-27T17:24:49.174Z,4.10
2023-02-27T17:27:17.950Z,4.10
2023-02-27T17:29:47.971Z,9.20
2023-02-27T17:32:16.779Z,10.30
2023-02-27T17:34:46.059Z,5.70
2023-02-27T17:37:17.128Z,4.30
2023-02-27T17:39:46.535Z,6.30
2023-02-27T17:42:19.188Z,2.70
2023-02-27T17:44:48.315Z,5.20
2023-02-27T17:47:17.167Z,4.20
2023-02-27T17:49:46.576Z,4.10
2023-02-27T17:52:16.095Z,4.40
2023-02-27T17:54:45.620Z,3.80
2023-02-27T17:57:19.936Z,6.60
2023-02-27T17:59:50.328Z,14.30
2023-02-27T18:02:20.451Z,6.00
2023-02-27T18:07:23.104Z,5.50
2023-02-27T18:09:56.530Z,5.40
2023-02-27T18:12:25.835Z,3.50
2023-02-27T18:15:01.081Z,3.50
2023-02-27T18:17:30.365Z,2.10
2023-02-27T18:19:59.369Z,2.40
2023-02-27T18:22:30.405Z,5.20
2023-02-27T18:25:02.056Z,7.50
2023-02-27T18:27:31.564Z,4.60
2023-02-27T18:30:00.873Z,3.60
2023-02-27T18:32:34.461Z,1.70
2023-02-27T18:35:05.222Z,2.20
2023-02-27T18:37:34.496Z,3.70
2023-02-27T18:40:04.935Z,3.40
2023-02-27T18:42:40.983Z,4.90
2023-02-27T18:45:11.819Z,6.70
2023-02-27T18:47:41.580Z,4.20
2023-02-27T18:50:10.909Z,4.60
2023-02-27T18:52:40.433Z,3.40
2023-02-27T18:55:09.837Z,4.80
2023-02-27T18:57:38.837Z,4.00
2023-02-27T19:00:10.876Z,4.00
2023-02-27T19:02:42.001Z,3.20
2023-02-27T19:05:12.754Z,2.10
2023-02-27T19:07:41.887Z,2.40
2023-02-27T19:10:11.418Z,3.10
2023-02-27T19:12:40.467Z,2.90
2023-02-27T19:15:12.252Z,2.90
2023-02-27T19:17:44.083Z,3.90
2023-02-27T19:20:17.672Z,3.50
2023-02-27T19:22:46.377Z,2.00
2023-02-27T19:25:16.387Z,2.30
2023-02-27T19:27:47.123Z,1.90
2023-02-27T19:32:47.257Z,10.20
2023-02-27T19:35:19.631Z,3.70
2023-02-27T19:37:57.436Z,2.50
2023-02-27T19:40:32.477Z,2.80
2023-02-27T19:43:06.460Z,2.40
2023-02-27T19:45:35.986Z,2.10
2023-02-27T19:48:06.103Z,1.90
2023-02-27T19:50:35.400Z,2.40
2023-02-27T19:53:04.903Z,2.20
2023-02-27T19:55:33.705Z,2.30
2023-02-27T19:58:02.789Z,2.50
2023-02-27T20:00:32.794Z,2.70
2023-02-27T20:03:02.018Z,3.10
2023-02-27T20:05:30.906Z,2.40
2023-02-27T20:07:59.898Z,3.90
2023-02-27T20:10:28.977Z,2.70
2023-02-27T20:12:58.795Z,2.20
2023-02-27T20:15:30.464Z,3.70
2023-02-27T20:17:59.558Z,2.40
2023-02-27T20:20:31.130Z,2.30
2023-02-27T20:23:00.911Z,2.80
2023-02-27T20:25:30.206Z,2.50
2023-02-27T20:27:59.506Z,2.80
2023-02-27T20:30:29.219Z,2.80
2023-02-27T20:32:58.924Z,2.40
2023-02-27T20:35:29.155Z,2.10
2023-02-27T20:37:59.677Z,1.90
2023-02-27T20:40:29.383Z,1.90
2023-02-27T20:42:58.685Z,2.30
2023-02-27T20:45:28.701Z,1.60
2023-02-27T20:47:57.723Z,1.70
2023-02-27T20:50:26.382Z,1.70
2023-02-27T20:52:55.373Z,1.50
2023-02-27T20:55:24.376Z,1.70
2023-02-27T20:57:53.571Z,1.70
2023-02-27T21:00:22.868Z,1.40
2023-02-27T21:02:52.110Z,2.80
2023-02-27T21:05:20.974Z,4.00
2023-02-27T21:07:50.050Z,1.70
2023-02-27T21:10:19.041Z,1.60
2023-02-27T21:19:23.304Z,1.50
2023-02-27T21:21:52.086Z,1.20
2023-02-27T21:24:21.900Z,1.20
2023-02-27T21:26:50.697Z,1.70
2023-02-27T21:29:20.764Z,1.30
2023-02-27T21:34:21.116Z,1.80
2023-02-27T21:36:54.465Z,2.30
2023-02-27T21:39:43.028Z,2.00
2023-02-27T21:42:14.666Z,2.10
2023-02-27T21:44:45.397Z,2.60
2023-02-27T21:47:17.448Z,1.60
2023-02-27T21:49:47.475Z,1.70
2023-02-27T21:52:16.456Z,1.30
2023-02-27T21:54:45.035Z,1.30
2023-02-27T21:57:14.028Z,2.40
2023-02-27T21:59:45.990Z,2.20
2023-02-27T22:02:15.070Z,2.00
2023-02-27T22:04:43.977Z,2.00
2023-02-27T22:07:12.867Z,2.40
2023-02-27T22:09:45.954Z,2.00
2023-02-27T22:12:18.429Z,3.00
2023-02-27T22:14:47.832Z,3.10
2023-02-27T22:17:16.519Z,2.50
2023-02-27T22:19:45.613Z,2.40
2023-02-27T22:22:15.120Z,2.70
2023-02-27T22:24:43.814Z,3.50
2023-02-27T22:27:15.767Z,3.20
2023-02-27T22:29:45.068Z,3.10
2023-02-27T22:32:16.958Z,3.30
2023-02-27T22:34:49.923Z,3.60
2023-02-27T22:37:20.268Z,3.10
2023-02-27T22:39:48.719Z,3.90
2023-02-27T22:42:17.512Z,4.00
2023-02-27T22:44:46.090Z,4.50
2023-02-27T22:47:18.002Z,4.80
2023-02-27T22:49:47.197Z,4.80
2023-02-27T22:52:16.035Z,6.00
2023-02-27T22:54:45.033Z,5.00
2023-02-27T22:57:14.499Z,5.10
2023-02-27T22:59:45.881Z,5.20
2023-02-27T23:02:14.583Z,6.50
2023-02-27T23:04:43.565Z,7.50
2023-02-27T23:07:12.139Z,7.30
2023-02-27T23:09:41.034Z,7.10
2023-02-27T23:12:16.135Z,7.40
2023-02-27T23:14:45.305Z,9.50
2023-02-27T23:17:14.161Z,8.40
2023-02-27T23:20:02.154Z,9.70
2023-02-27T23:22:35.285Z,11.00
2023-02-27T23:25:07.664Z,12.10
2023-02-27T23:27:36.279Z,11.70
2023-02-27T23:30:06.575Z,10.10
2023-02-27T23:32:44.515Z,10.60
2023-02-27T23:35:15.297Z,11.90
2023-02-27T23:37:45.009Z,12.70
2023-02-27T23:40:14.718Z,13.80
2023-02-27T23:43:02.221Z,13.70
2023-02-27T23:45:33.949Z,21.40
2023-02-27T23:48:03.521Z,18.00
2023-02-27T23:50:34.342Z,14.80
2023-02-27T23:53:03.654Z,15.20
2023-02-27T23:55:35.472Z,17.80
2023-02-27T23:58:05.849Z,17.00
